A- A+ FrançaisEnglishEspañol中国

le plus proche LFBT Tarbes-Lourdes-PyrénéesLFPK Coulommiers-VoisinsLFPE Meaux-Esbly LFOT Tours-St-Symphorien

manche à air

La météo aéronautique pour les pilotes, la préparation du vol avec les METAR (METeorological Aerodrome Report, message d'observation des conditions météorologiques pour l'aviation) et Les TAF (Terminal Aerodrome Forecast : message de prévision à court terme des conditions météorologiques pour l'aviation). Et les autres ressources comme les VAC (Visual Approch Chart) et les NOTAM (Notice To Airman) pour préprer les vols.

Aéroport Wittering (Royaume-Uni) / OACI EGXT

L'altitude de l'aéroport Wittering est de 83 m=272 ft. Il est situé à proximité de Wittering (Royaume-Uni). La météo générale à 5 jours est disponible pour Wakerley situé à 8.4 km.

METAR de l'aéroport Wittering - EGXT

EGXT 291050Z AUTO 23016KT 9999 FEW015/// BKN021/// 19/16 Q0991

Décodage du METAR de l'aéroport Wittering (GB)

METAR émis par EGXT le dimanche 29 septembre 2019 à 10:50 heure TU. C'est un METAR généré automatiquement, il y a 3 minutes.

La visibilité est de supérieure à 10 km=supérieure à 6.2 sm.

La température est de 19°C=66 °F et le point rosée est de 16°C=61 °F . Ce qui correspond à 83% d'humidité relative.

Le QNH est de 991 hPa=29.26 inHg

Vent de 16 kt=30 km/h, orienté à 230°.

Nuages : Quelques nuages à 1500 ft=460 mètres. Couverture nuageuse fragmentée à 2100 ft=640 mètres.

TAF de l'aéroport Wittering - EGXT

EGXT 031324Z 0315/0318 26014KT 9999 SCT030

EGXT 031324Z 0315/0318 26014KT 9999 nuages épars à 030

Aéroport à proximité de Wittering

Météo générale à 5 jours à Wakerley (8.4 km)EGSP Aéroport Peterborough Sibson (9 km)EGSF Aéroport Peterborough Conington (22 km)EGCL Aéroport Fenland (33 km)EGBG Aéroport Leicester (38 km)EGUY Aéroport Wyton (38 km)EGYE Aéroport Barkston Heath (39 km)

Vue aérienne de l'aéroport Wittering

NOTAM de l'aéroport Wittering

Les NOTAM sont fournis sans aucune garantie de leur actualité. Le pilote est le seul responsable de la vérification de sa validité avant de l'utiliser opérationnellement pour préparer un vol ou l'utiliser lors de sa navigation.

NOTAM Aerodrome (à partir du vendredi 27 septembre 2019 à 12:19 jusqu'au lundi 30 septembre 2019 à 07:30)

U4233/19 NOTAMN
Q) EGTT/QFALC/IV/NBO/A /000/999/5237N00029W005
A) EGXT B) 1909271219 C) 1909300730
E) AIRFIELD CLOSED
CREATED: 27 Sep 2019 12:26:00
SOURCE: EUECYIYN

Sources des données